Terminal Aerodrome Forecast
Issued by NWS Shreveport, LA

Home | Current Version | Previous Version | Text Only | Print | Product List | Glossary On
Versions: 1 2 3 4 5 6 7 8 9 10 11 12 13
000
FTUS44 KSHV 182300
TAFLFK
TAF
KLFK 182339Z 1900/1924 07004KT 6SM BR BKN009 OVC019
      TEMPO 1900/1903 SCT009 OVC019
     FM190600 05005KT 6SM BR VCSH OVC007
      TEMPO 1906/1908 4SM -SHRA BR OVC004
     FM190800 04005KT 3SM SHRA BR OVC004
      TEMPO 1909/1913 1 1/2SM TSRA BR BKN004 OVC010CB
     FM192000 04006KT 5SM -RA BR OVC006=

USA.gov is the U.S. government's official web portal to all federal, state and local government web resources and services.